Details for TUI Nordic at ESGG




Go Back


Latest METAR
Local Time

ESGG 241350Z 07005KT 040V100 CAVOK M03/M11 Q1037 R03/19//95

24/02/2018, 15:07:30

Description
Results
TUI Nordic Logo
Number of Pilots based at ESGG
0 Pilots Based here
Number of TUI Nordic Flights Departed from ESGG
0 Flights Departed
Number of TUI Nordic Flights Arrived at ESGG
0 Flights Arrived
Number of TUI Nordic Schedules Departing from ESGG
11 Schedules
Number of TUI Nordic Schedules Arriving at ESGG
10 Schedules
Number of TUI Nordic Schedules Departing from ESGG availible today
3 Schedules Today
Number of TUI Nordic Schedules Arriving at ESGG availible today
2 Schedules Today
Average Landing Rate at ESGG
-350 fpm
TUI Nordic Average Landing Rate at ESGG
0 fpm
Total Fuel Purchased at ESGG by TUI Nordic
0.00 kgs / 0.00 lbs

Pilots Based at ESGG


Pilot ID
Pilot Name
Pilot Rank
No. of Flights
No. of Flying Hours
There are no pilots assigned to this hub!   Will you be the first?
Content